Printer, Kentucky
Current Conditions -  °F | °C
As of 4:35 AM on Thursday 23 Oct 2014 (Local Time) from KPBX Reporting Station
Overcast Overcast  
Wind Chill: 45°   Ceiling: 2600
Heat Index: 45°   Visibility: 10mi
Dew Point: 40°   Wind: 3mph
Humidity: 85%   Direction: 320°NW
Pressure: 30.2"   Gusts: NA
Location:  37.53°N, 82.75°W
Report Text: KPBX 230835Z AUTO 32003KT 10SM OVC026 07/05 A3020 RMK AO2 T00700047
Loading
Personal Weather Stations






























Interactive Weather Map
Tropical Storm Tracking
New forecast layout! Learn more

10-Day Weather Forecast

Advertisements
Track Severe Weather on mobile